createdAt,value
2017-04-03T00:01:10.283Z,1017.83
2017-04-03T00:02:10.220Z,1017.8
2017-04-03T00:03:10.159Z,1017.82
2017-04-03T00:04:10.096Z,1017.76
2017-04-03T00:05:10.035Z,1017.78
2017-04-03T00:06:09.973Z,1017.83
2017-04-03T00:07:09.912Z,1017.86
2017-04-03T00:08:09.850Z,1017.8
2017-04-03T00:09:09.788Z,1017.78
2017-04-03T00:10:09.726Z,1017.8
2017-04-03T00:11:09.664Z,1017.77
2017-04-03T00:12:09.606Z,1017.74
2017-04-03T00:13:09.541Z,1017.76
2017-04-03T00:14:09.480Z,1017.81
2017-04-03T00:15:09.417Z,1017.79
2017-04-03T00:16:09.356Z,1017.78
2017-04-03T00:17:09.295Z,1017.75
2017-04-03T00:18:09.234Z,1017.81
2017-04-03T00:19:09.170Z,1017.79
2017-04-03T00:20:09.110Z,1017.77
2017-04-03T00:21:09.048Z,1017.78
2017-04-03T00:22:08.986Z,1017.79
2017-04-03T00:23:08.924Z,1017.78
2017-04-03T00:24:08.863Z,1017.82
2017-04-03T00:25:08.801Z,1017.83
2017-04-03T00:26:08.739Z,1017.82
2017-04-03T00:27:08.677Z,1017.83
2017-04-03T00:28:08.615Z,1017.79
2017-04-03T00:29:08.555Z,1017.83
2017-04-03T00:30:08.493Z,1017.78
2017-04-03T00:31:08.431Z,1017.79
2017-04-03T00:32:08.369Z,1017.81
2017-04-03T00:33:08.307Z,1017.82
2017-04-03T00:34:08.245Z,1017.82
2017-04-03T00:35:08.186Z,1017.81
2017-04-03T00:36:08.124Z,1017.84
2017-04-03T00:37:08.061Z,1017.86
2017-04-03T00:38:08.000Z,1017.82
2017-04-03T00:39:07.938Z,1017.83
2017-04-03T00:40:07.876Z,1017.83
2017-04-03T00:41:07.814Z,1017.84
2017-04-03T00:42:07.752Z,1017.84
2017-04-03T00:43:07.691Z,1017.85
2017-04-03T00:44:07.630Z,1017.81
2017-04-03T00:45:07.567Z,1017.83
2017-04-03T00:46:07.506Z,1017.84
2017-04-03T00:47:07.445Z,1017.87
2017-04-03T00:48:07.381Z,1017.89
2017-04-03T00:49:07.320Z,1017.89
2017-04-03T00:50:07.259Z,1017.88
2017-04-03T00:51:07.198Z,1017.86
2017-04-03T00:52:07.136Z,1017.81
2017-04-03T00:53:07.077Z,1017.84
2017-04-03T00:54:07.014Z,1017.86
2017-04-03T00:55:06.950Z,1017.88
2017-04-03T00:56:06.888Z,1017.88
2017-04-03T00:57:06.827Z,1017.88
2017-04-03T00:58:06.765Z,1017.91
2017-04-03T00:59:06.704Z,1017.88
2017-04-03T01:00:06.642Z,1017.93
2017-04-03T01:01:06.581Z,1017.91
2017-04-03T01:02:06.519Z,1017.97
2017-04-03T01:03:06.457Z,1017.97
2017-04-03T01:04:06.396Z,1018
2017-04-03T01:05:06.334Z,1017.99
2017-04-03T01:06:06.272Z,1017.97
2017-04-03T01:07:06.211Z,1017.99
2017-04-03T01:08:06.149Z,1018
2017-04-03T01:09:06.087Z,1017.98
2017-04-03T01:10:06.026Z,1018.01
2017-04-03T01:11:05.964Z,1018
2017-04-03T01:12:05.901Z,1018.02
2017-04-03T01:13:05.842Z,1018.01
2017-04-03T01:14:05.779Z,1018.04
2017-04-03T01:15:05.717Z,1018.02
2017-04-03T01:16:05.655Z,1018.04
2017-04-03T01:17:05.594Z,1018.01
2017-04-03T01:18:05.532Z,1018.04
2017-04-03T01:19:05.471Z,1018.05
2017-04-03T01:20:05.409Z,1018.04
2017-04-03T01:21:05.347Z,1018.06
2017-04-03T01:22:05.286Z,1018.04
2017-04-03T01:23:05.223Z,1018.01
2017-04-03T01:24:05.161Z,1018.05
2017-04-03T01:25:05.100Z,1018.03
2017-04-03T01:26:05.038Z,1018.03
2017-04-03T01:27:04.977Z,1018.04
2017-04-03T01:28:04.915Z,1018.05
2017-04-03T01:29:04.853Z,1018.05
2017-04-03T01:30:04.792Z,1018.04
2017-04-03T01:31:04.731Z,1018.05
2017-04-03T01:32:04.668Z,1018.03
2017-04-03T01:33:04.606Z,1018.05
2017-04-03T01:34:04.546Z,1018.09
2017-04-03T01:35:04.485Z,1018.06
2017-04-03T01:36:04.424Z,1018.07
2017-04-03T01:37:04.361Z,1018.1
2017-04-03T01:38:04.300Z,1018.08
2017-04-03T01:39:04.236Z,1018.08
2017-04-03T01:40:04.178Z,1018.1
2017-04-03T01:41:04.114Z,1018.09
2017-04-03T01:42:04.053Z,1018.12
2017-04-03T01:43:03.990Z,1018.13
2017-04-03T01:44:03.929Z,1018.14
2017-04-03T01:45:03.868Z,1018.15
2017-04-03T01:46:03.805Z,1018.17
2017-04-03T01:47:03.745Z,1018.17
2017-04-03T01:48:03.682Z,1018.16
2017-04-03T01:49:03.621Z,1018.15
2017-04-03T01:50:03.559Z,1018.18
2017-04-03T01:51:03.497Z,1018.19
2017-04-03T01:52:03.436Z,1018.22
2017-04-03T01:53:03.375Z,1018.2
2017-04-03T01:54:03.311Z,1018.2
2017-04-03T01:55:03.251Z,1018.24
2017-04-03T01:56:03.189Z,1018.23
2017-04-03T01:57:03.126Z,1018.26
2017-04-03T01:58:03.065Z,1018.25
2017-04-03T01:59:03.004Z,1018.25
2017-04-03T02:00:02.942Z,1018.24
2017-04-03T02:01:02.880Z,1018.21
2017-04-03T02:02:02.819Z,1018.26
2017-04-03T02:03:02.757Z,1018.24
2017-04-03T02:04:02.696Z,1018.27
2017-04-03T02:05:02.634Z,1018.26
2017-04-03T02:06:02.571Z,1018.24
2017-04-03T02:07:02.512Z,1018.25
2017-04-03T02:08:02.453Z,1018.25
2017-04-03T02:09:02.388Z,1018.23
2017-04-03T02:10:02.325Z,1018.26
2017-04-03T02:11:02.263Z,1018.24
2017-04-03T02:12:02.202Z,1018.28
2017-04-03T02:13:02.141Z,1018.24
2017-04-03T02:14:02.079Z,1018.28
2017-04-03T02:15:02.017Z,1018.24
2017-04-03T02:16:01.955Z,1018.27
2017-04-03T02:17:01.894Z,1018.28
2017-04-03T02:18:01.832Z,1018.26
2017-04-03T02:19:01.769Z,1018.27
2017-04-03T02:20:01.716Z,1018.29
2017-04-03T02:21:01.646Z,1018.29
2017-04-03T02:22:01.585Z,1018.31
2017-04-03T02:23:01.523Z,1018.3
2017-04-03T02:24:01.462Z,1018.32
2017-04-03T02:25:01.401Z,1018.34
2017-04-03T02:26:01.339Z,1018.34
2017-04-03T02:27:01.276Z,1018.31
2017-04-03T02:28:01.217Z,1018.34
2017-04-03T02:29:01.155Z,1018.31
2017-04-03T02:30:01.091Z,1018.29
2017-04-03T02:31:01.029Z,1018.29
2017-04-03T02:32:00.970Z,1018.27
2017-04-03T02:33:00.907Z,1018.29
2017-04-03T02:34:00.844Z,1018.29
2017-04-03T02:35:00.783Z,1018.32
2017-04-03T02:36:00.721Z,1018.33
2017-04-03T02:37:00.659Z,1018.34
2017-04-03T02:38:00.597Z,1018.36
2017-04-03T02:39:00.539Z,1018.4
2017-04-03T02:40:00.475Z,1018.34
2017-04-03T02:41:00.412Z,1018.36
2017-04-03T02:42:00.351Z,1018.37
2017-04-03T02:43:00.289Z,1018.37
2017-04-03T02:44:00.227Z,1018.36
2017-04-03T02:45:00.166Z,1018.34
2017-04-03T02:46:00.104Z,1018.37
2017-04-03T02:47:00.042Z,1018.35
2017-04-03T02:47:59.981Z,1018.41
2017-04-03T02:48:59.918Z,1018.41
2017-04-03T02:49:59.857Z,1018.43
2017-04-03T02:50:59.796Z,1018.39
2017-04-03T02:51:59.733Z,1018.4
2017-04-03T02:52:59.671Z,1018.39
2017-04-03T02:53:59.610Z,1018.43
2017-04-03T02:54:59.550Z,1018.42
2017-04-03T02:55:59.486Z,1018.41
2017-04-03T02:56:59.425Z,1018.44
2017-04-03T02:57:59.363Z,1018.46
2017-04-03T02:58:59.302Z,1018.45
2017-04-03T02:59:59.239Z,1018.43
2017-04-03T03:00:59.178Z,1018.42
2017-04-03T03:01:59.118Z,1018.7
2017-04-03T03:02:59.054Z,1018.63
2017-04-03T03:03:58.992Z,1018.47
2017-04-03T03:04:58.931Z,1018.47
2017-04-03T03:05:58.870Z,1018.52
2017-04-03T03:06:58.845Z,1018.5
2017-04-03T03:07:58.746Z,1018.51
2017-04-03T03:08:58.686Z,1018.54
2017-04-03T03:09:58.624Z,1018.52
2017-04-03T03:10:58.562Z,1018.56
2017-04-03T03:11:58.501Z,1018.52
2017-04-03T03:12:58.440Z,1018.58
2017-04-03T03:13:58.377Z,1018.54
2017-04-03T03:14:58.314Z,1018.51
2017-04-03T03:15:58.253Z,1018.51
2017-04-03T03:16:58.192Z,1018.53
2017-04-03T03:17:58.138Z,1018.5
2017-04-03T03:18:58.078Z,1018.52
2017-04-03T03:19:58.007Z,1018.51
2017-04-03T03:20:57.944Z,1018.53
2017-04-03T03:21:57.883Z,1018.57
2017-04-03T03:22:57.821Z,1018.57
2017-04-03T03:23:57.759Z,1018.51
2017-04-03T03:24:57.697Z,1018.56
2017-04-03T03:25:57.636Z,1018.6
2017-04-03T03:26:57.574Z,1018.63
2017-04-03T03:27:57.512Z,1018.59
2017-04-03T03:28:57.451Z,1018.61
2017-04-03T03:29:57.389Z,1018.65
2017-04-03T03:30:57.327Z,1018.63
2017-04-03T03:31:57.265Z,1018.65
2017-04-03T03:32:57.204Z,1018.65
2017-04-03T03:33:57.142Z,1018.68
2017-04-03T03:34:57.080Z,1018.68
2017-04-03T03:35:57.018Z,1018.66
2017-04-03T03:36:56.956Z,1018.71
2017-04-03T03:37:56.895Z,1018.74
2017-04-03T03:38:56.833Z,1018.72
2017-04-03T03:39:56.770Z,1018.74
2017-04-03T03:40:56.709Z,1018.76
2017-04-03T03:41:56.649Z,1018.74
2017-04-03T03:42:56.585Z,1018.73
2017-04-03T03:43:56.523Z,1018.73
2017-04-03T03:44:56.462Z,1018.77
2017-04-03T03:45:56.401Z,1018.75
2017-04-03T03:46:56.339Z,1018.77
2017-04-03T03:47:56.276Z,1018.8
2017-04-03T03:48:56.215Z,1018.75
2017-04-03T03:49:56.153Z,1018.74
2017-04-03T03:50:56.091Z,1018.78
2017-04-03T03:51:56.030Z,1018.76
2017-04-03T03:52:55.969Z,1018.76
2017-04-03T03:53:55.906Z,1018.79
2017-04-03T03:54:55.844Z,1018.8
2017-04-03T03:55:55.783Z,1018.83
2017-04-03T03:56:55.723Z,1018.88
2017-04-03T03:57:55.659Z,1018.87
2017-04-03T03:58:55.597Z,1018.89
2017-04-03T03:59:55.535Z,1018.86
2017-04-03T04:00:55.474Z,1018.91
2017-04-03T04:01:55.412Z,1018.89
2017-04-03T04:02:55.351Z,1018.88
2017-04-03T04:03:55.290Z,1018.89
2017-04-03T04:04:55.227Z,1018.93
2017-04-03T04:05:55.164Z,1018.94
2017-04-03T04:06:55.104Z,1019.01
2017-04-03T04:07:55.041Z,1019.02
2017-04-03T04:08:54.979Z,1019.06
2017-04-03T04:09:54.917Z,1019.06
2017-04-03T04:10:54.856Z,1019.05
2017-04-03T04:11:54.795Z,1019.08
2017-04-03T04:12:54.733Z,1019.1
2017-04-03T04:13:54.671Z,1019.1
2017-04-03T04:14:54.609Z,1019.1
2017-04-03T04:15:54.547Z,1019.08
2017-04-03T04:16:54.485Z,1019.1
2017-04-03T04:17:54.423Z,1019.13
2017-04-03T04:18:54.362Z,1019.15
2017-04-03T04:19:54.310Z,1019.15
2017-04-03T04:20:54.237Z,1019.16
2017-04-03T04:21:54.177Z,1019.16
2017-04-03T04:22:54.114Z,1019.18
2017-04-03T04:23:54.052Z,1019.23
2017-04-03T04:24:53.990Z,1019.25
2017-04-03T04:25:53.929Z,1019.23
2017-04-03T04:26:53.866Z,1019.28
2017-04-03T04:27:53.805Z,1019.3
2017-04-03T04:28:53.744Z,1019.33
2017-04-03T04:29:53.682Z,1019.38
2017-04-03T04:30:53.621Z,1019.42
2017-04-03T04:31:53.558Z,1019.44
2017-04-03T04:32:53.497Z,1019.4
2017-04-03T04:33:53.436Z,1019.4
2017-04-03T04:34:53.372Z,1019.4
2017-04-03T04:35:53.311Z,1019.43
2017-04-03T04:36:53.250Z,1019.43
2017-04-03T04:37:53.187Z,1019.46
2017-04-03T04:38:53.125Z,1019.51
2017-04-03T04:39:53.063Z,1019.49
2017-04-03T04:40:53.002Z,1019.56
2017-04-03T04:41:52.939Z,1019.55
2017-04-03T04:42:52.878Z,1019.54
2017-04-03T04:43:52.816Z,1019.58
2017-04-03T04:44:52.755Z,1019.54
2017-04-03T04:45:52.693Z,1019.54
2017-04-03T04:46:52.632Z,1019.58
2017-04-03T04:47:52.570Z,1019.54
2017-04-03T04:48:52.510Z,1019.53
2017-04-03T04:49:52.445Z,1019.56
2017-04-03T04:50:52.484Z,1019.52
2017-04-03T04:51:52.323Z,1019.53
2017-04-03T04:52:52.263Z,1019.5
2017-04-03T04:53:52.198Z,1019.53
2017-04-03T04:54:52.150Z,1019.52
2017-04-03T04:55:52.086Z,1019.52
2017-04-03T04:56:52.020Z,1019.56
2017-04-03T04:57:51.951Z,1019.54
2017-04-03T04:58:51.889Z,1019.53
2017-04-03T04:59:51.827Z,1019.52
2017-04-03T05:00:51.766Z,1019.57
2017-04-03T05:01:51.705Z,1019.57
2017-04-03T05:02:51.642Z,1019.55
2017-04-03T05:03:51.580Z,1019.57
2017-04-03T05:04:51.518Z,1019.55
2017-04-03T05:05:51.456Z,1019.58
2017-04-03T05:06:51.393Z,1019.6
2017-04-03T05:07:51.332Z,1019.58
2017-04-03T05:08:51.270Z,1019.61
2017-04-03T05:09:51.211Z,1019.64
2017-04-03T05:10:51.148Z,1019.69
2017-04-03T05:11:51.084Z,1019.74
2017-04-03T05:12:51.027Z,1019.75
2017-04-03T05:13:50.961Z,1019.77
2017-04-03T05:14:50.900Z,1019.8
2017-04-03T05:15:50.838Z,1019.82
2017-04-03T05:16:50.775Z,1019.81
2017-04-03T05:17:50.714Z,1019.83
2017-04-03T05:18:50.652Z,1019.86
2017-04-03T05:19:50.590Z,1019.85
2017-04-03T05:20:50.528Z,1019.87
2017-04-03T05:21:50.466Z,1019.85
2017-04-03T05:22:50.404Z,1019.86
2017-04-03T05:23:50.346Z,1019.92
2017-04-03T05:24:50.280Z,1019.95
2017-04-03T05:25:50.222Z,1019.96
2017-04-03T05:26:50.157Z,1019.94
2017-04-03T05:27:50.095Z,1020.04
2017-04-03T05:28:50.032Z,1020.02
2017-04-03T05:29:49.970Z,1020.02
2017-04-03T05:30:49.908Z,1020.03
2017-04-03T05:31:49.847Z,1020.08
2017-04-03T05:32:49.784Z,1020.08
2017-04-03T05:33:49.724Z,1020.08
2017-04-03T05:34:49.662Z,1020.13
2017-04-03T05:35:49.601Z,1020.13
2017-04-03T05:36:49.538Z,1020.09
2017-04-03T05:37:49.478Z,1020.15
2017-04-03T05:38:49.414Z,1020.15
2017-04-03T05:39:49.351Z,1020.19
2017-04-03T05:40:49.290Z,1020.18
2017-04-03T05:41:49.229Z,1020.16
2017-04-03T05:42:49.166Z,1020.11
2017-04-03T05:43:49.104Z,1020.13
2017-04-03T05:44:49.041Z,1020.18
2017-04-03T05:45:48.982Z,1020.17
2017-04-03T05:46:48.923Z,1020.23
2017-04-03T05:47:48.859Z,1020.23
2017-04-03T05:48:48.794Z,1020.23
2017-04-03T05:49:48.734Z,1020.27
2017-04-03T05:50:48.671Z,1020.3
2017-04-03T05:51:48.609Z,1020.28
2017-04-03T05:52:48.547Z,1020.3
2017-04-03T05:53:48.485Z,1020.28
2017-04-03T05:54:48.423Z,1020.3
2017-04-03T05:55:48.361Z,1020.3
2017-04-03T05:56:48.299Z,1020.36
2017-04-03T05:57:48.238Z,1020.29
2017-04-03T05:58:48.175Z,1020.29
2017-04-03T05:59:48.114Z,1020.31
2017-04-03T06:00:48.052Z,1020.33
2017-04-03T06:01:47.999Z,1020.36
2017-04-03T06:02:47.927Z,1020.38
2017-04-03T06:03:47.867Z,1020.41
2017-04-03T06:04:47.804Z,1020.42
2017-04-03T06:05:47.774Z,1020.45
2017-04-03T06:06:47.680Z,1020.47
2017-04-03T06:07:47.619Z,1020.46
2017-04-03T06:08:47.557Z,1020.5
2017-04-03T06:09:47.494Z,1020.53
2017-04-03T06:10:47.432Z,1020.54
2017-04-03T06:11:47.371Z,1020.53
2017-04-03T06:12:47.308Z,1020.54
2017-04-03T06:13:47.247Z,1020.55
2017-04-03T06:14:47.184Z,1020.58
2017-04-03T06:15:47.124Z,1020.59
2017-04-03T06:16:47.061Z,1020.55
2017-04-03T06:17:46.999Z,1020.56
2017-04-03T06:18:46.938Z,1020.6
2017-04-03T06:19:46.875Z,1020.62
2017-04-03T06:20:46.817Z,1020.64
2017-04-03T06:21:46.752Z,1020.64
2017-04-03T06:22:46.691Z,1020.67
2017-04-03T06:23:46.628Z,1020.69
2017-04-03T06:24:46.567Z,1020.72
2017-04-03T06:25:46.506Z,1020.71
2017-04-03T06:26:46.443Z,1020.68
2017-04-03T06:27:46.381Z,1020.69
2017-04-03T06:28:46.319Z,1020.73
2017-04-03T06:29:46.258Z,1020.74
2017-04-03T06:30:46.194Z,1020.78
2017-04-03T06:31:46.133Z,1020.78
2017-04-03T06:32:46.071Z,1020.76
2017-04-03T06:33:46.008Z,1020.77
2017-04-03T06:34:45.950Z,1020.73
2017-04-03T06:35:45.885Z,1020.73
2017-04-03T06:36:45.823Z,1020.75
2017-04-03T06:37:45.762Z,1020.74
2017-04-03T06:38:45.699Z,1020.75
2017-04-03T06:39:45.638Z,1020.77
2017-04-03T06:40:45.575Z,1020.77
2017-04-03T06:41:45.513Z,1020.77
2017-04-03T06:42:45.452Z,1020.78
2017-04-03T06:43:45.389Z,1020.77
2017-04-03T06:44:45.328Z,1020.76
2017-04-03T06:45:45.265Z,1020.77
2017-04-03T06:46:45.206Z,1020.79
2017-04-03T06:47:45.142Z,1020.79
2017-04-03T06:48:45.080Z,1020.78
2017-04-03T06:49:45.020Z,1020.88
2017-04-03T06:50:44.957Z,1020.83
2017-04-03T06:51:44.895Z,1020.84
2017-04-03T06:52:44.832Z,1020.85
2017-04-03T06:53:44.771Z,1020.87
2017-04-03T06:54:44.708Z,1020.85
2017-04-03T06:55:44.684Z,1020.84
2017-04-03T06:56:44.585Z,1020.85
2017-04-03T06:57:44.524Z,1020.84
2017-04-03T06:58:44.460Z,1020.84
2017-04-03T06:59:44.398Z,1020.87
2017-04-03T07:00:44.336Z,1020.85
2017-04-03T07:01:44.273Z,1020.91
2017-04-03T07:02:44.211Z,1020.88
2017-04-03T07:03:44.148Z,1020.87
2017-04-03T07:04:44.096Z,1020.87
2017-04-03T07:05:44.024Z,1020.94
2017-04-03T07:06:43.963Z,1020.94
2017-04-03T07:07:43.900Z,1020.96
2017-04-03T07:08:43.838Z,1020.97
2017-04-03T07:09:43.775Z,1020.96
2017-04-03T07:10:43.713Z,1020.97
2017-04-03T07:11:43.652Z,1020.98
2017-04-03T07:12:43.588Z,1021
2017-04-03T07:13:43.527Z,1021.02
2017-04-03T07:14:43.464Z,1020.97
2017-04-03T07:15:43.666Z,1020.98
2017-04-03T07:16:43.339Z,1020.96
2017-04-03T07:17:43.277Z,1020.97
2017-04-03T07:18:43.213Z,1021.02
2017-04-03T07:19:43.153Z,1021.01
2017-04-03T07:20:43.089Z,1021.01
2017-04-03T07:21:43.028Z,1020.98
2017-04-03T07:22:42.964Z,1021.01
2017-04-03T07:23:42.902Z,1020.97
2017-04-03T07:24:42.839Z,1020.98
2017-04-03T07:25:42.775Z,1020.99
2017-04-03T07:26:42.714Z,1020.98
2017-04-03T07:27:42.652Z,1020.99
2017-04-03T07:28:42.589Z,1021.01
2017-04-03T07:29:42.527Z,1021.03
2017-04-03T07:30:42.465Z,1021.05
2017-04-03T07:31:42.401Z,1021.04
2017-04-03T07:32:42.338Z,1021.04
2017-04-03T07:33:42.276Z,1021.08
2017-04-03T07:34:42.212Z,1021.04
2017-04-03T07:35:42.151Z,1021.11
2017-04-03T07:36:42.087Z,1021.09
2017-04-03T07:37:42.024Z,1021.12
2017-04-03T07:38:41.962Z,1021.15
2017-04-03T07:39:41.901Z,1021.15
2017-04-03T07:40:41.837Z,1021.18
2017-04-03T07:41:41.775Z,1021.16
2017-04-03T07:42:41.713Z,1021.23
2017-04-03T07:43:41.650Z,1021.22
2017-04-03T07:44:41.586Z,1021.24
2017-04-03T07:45:41.525Z,1021.21
2017-04-03T07:46:41.464Z,1021.21
2017-04-03T07:47:41.399Z,1021.19
2017-04-03T07:48:41.336Z,1021.19
2017-04-03T07:49:41.274Z,1021.23
2017-04-03T07:50:41.211Z,1021.22
2017-04-03T07:51:41.147Z,1021.21
2017-04-03T07:52:41.087Z,1021.23
2017-04-03T07:53:41.034Z,1021.24
2017-04-03T07:54:40.961Z,1021.29
2017-04-03T07:55:40.896Z,1021.26
2017-04-03T07:56:40.833Z,1021.31
2017-04-03T07:57:40.772Z,1021.36
2017-04-03T07:58:40.708Z,1021.32
2017-04-03T07:59:40.646Z,1021.37
2017-04-03T08:00:40.583Z,1021.36
2017-04-03T08:01:40.521Z,1021.41
2017-04-03T08:02:40.457Z,1021.39
2017-04-03T08:03:40.394Z,1021.4
2017-04-03T08:04:40.332Z,1021.43
2017-04-03T08:05:40.269Z,1021.44
2017-04-03T08:06:40.205Z,1021.41
2017-04-03T08:07:40.144Z,1021.4
2017-04-03T08:08:40.080Z,1021.45
2017-04-03T08:09:40.017Z,1021.44
2017-04-03T08:10:39.953Z,1021.42
2017-04-03T08:11:39.892Z,1021.47
2017-04-03T08:12:39.828Z,1021.44
2017-04-03T08:13:39.765Z,1021.52
2017-04-03T08:14:39.702Z,1021.48
2017-04-03T08:15:39.638Z,1021.49
2017-04-03T08:16:39.576Z,1021.47
2017-04-03T08:17:39.513Z,1021.46
2017-04-03T08:18:39.450Z,1021.46
2017-04-03T08:19:39.388Z,1021.45
2017-04-03T08:20:39.323Z,1021.42
2017-04-03T08:21:39.261Z,1021.46
2017-04-03T08:22:39.198Z,1021.48
2017-04-03T08:23:39.135Z,1021.47
2017-04-03T08:24:39.072Z,1021.48
2017-04-03T08:25:39.009Z,1021.48
2017-04-03T08:26:38.946Z,1021.45
2017-04-03T08:27:38.882Z,1021.4
2017-04-03T08:28:38.820Z,1021.42
2017-04-03T08:29:38.758Z,1021.39
2017-04-03T08:30:38.695Z,1021.43
2017-04-03T08:31:38.630Z,1021.46
2017-04-03T08:32:38.567Z,1021.45
2017-04-03T08:33:38.504Z,1021.46
2017-04-03T08:34:38.441Z,1021.45
2017-04-03T08:35:38.377Z,1021.44
2017-04-03T08:36:38.314Z,1021.44
2017-04-03T08:37:38.253Z,1021.47
2017-04-03T08:38:38.188Z,1021.46
2017-04-03T08:39:38.125Z,1021.48
2017-04-03T08:40:38.063Z,1021.47
2017-04-03T08:41:37.999Z,1021.48
2017-04-03T08:42:37.936Z,1021.43
2017-04-03T08:43:37.872Z,1021.43
2017-04-03T08:44:37.810Z,1021.42
2017-04-03T08:45:37.747Z,1021.39
2017-04-03T08:46:37.683Z,1021.43
2017-04-03T08:47:37.619Z,1021.43
2017-04-03T08:48:37.557Z,1021.43
2017-04-03T08:49:37.492Z,1021.43
2017-04-03T08:50:37.431Z,1021.4
2017-04-03T08:51:37.367Z,1021.39
2017-04-03T08:52:37.304Z,1021.42
2017-04-03T08:53:37.240Z,1021.41
2017-04-03T08:54:37.178Z,1021.42
2017-04-03T08:55:37.464Z,1021.46
2017-04-03T08:56:37.051Z,1021.45
2017-04-03T08:57:36.986Z,1021.46
2017-04-03T08:58:36.924Z,1021.44
2017-04-03T08:59:36.861Z,1021.48
2017-04-03T09:00:36.800Z,1021.47
2017-04-03T09:01:36.735Z,1021.48
2017-04-03T09:02:36.670Z,1021.52
2017-04-03T09:03:36.608Z,1021.55
2017-04-03T09:04:36.545Z,1021.56
2017-04-03T09:05:36.481Z,1021.54
2017-04-03T09:06:36.419Z,1021.55
2017-04-03T09:07:36.357Z,1021.59
2017-04-03T09:08:36.290Z,1021.58
2017-04-03T09:09:36.228Z,1021.57
2017-04-03T09:10:36.164Z,1021.63
2017-04-03T09:11:36.100Z,1021.62
2017-04-03T09:12:36.039Z,1021.62
2017-04-03T09:13:35.974Z,1021.63
2017-04-03T09:14:35.912Z,1021.64
2017-04-03T09:15:35.848Z,1021.64
2017-04-03T09:16:35.784Z,1021.65
2017-04-03T09:17:35.721Z,1021.64
2017-04-03T09:18:35.659Z,1021.65
2017-04-03T09:19:35.594Z,1021.65
2017-04-03T09:20:35.532Z,1021.65
2017-04-03T09:21:35.467Z,1021.67
2017-04-03T09:22:35.405Z,1021.61
2017-04-03T09:23:35.341Z,1021.63
2017-04-03T09:24:35.279Z,1021.67
2017-04-03T09:25:35.316Z,1021.61
2017-04-03T09:26:35.154Z,1021.61
2017-04-03T09:27:35.089Z,1021.62
2017-04-03T09:28:35.027Z,1021.61
2017-04-03T09:29:34.963Z,1021.67
2017-04-03T09:30:35.150Z,1021.66
2017-04-03T09:31:34.836Z,1021.68
2017-04-03T09:32:34.774Z,1021.67
2017-04-03T09:33:34.711Z,1021.69
2017-04-03T09:34:34.648Z,1021.66
2017-04-03T09:35:34.588Z,1021.69
2017-04-03T09:36:34.522Z,1021.7
2017-04-03T09:37:34.459Z,1021.72
2017-04-03T09:38:34.397Z,1021.72
2017-04-03T09:39:34.332Z,1021.68
2017-04-03T09:40:34.271Z,1021.72
2017-04-03T09:41:34.208Z,1021.7
2017-04-03T09:42:34.145Z,1021.71
2017-04-03T09:43:34.080Z,1021.69
2017-04-03T09:44:34.015Z,1021.72
2017-04-03T09:45:33.952Z,1021.65
2017-04-03T09:46:33.891Z,1021.68
2017-04-03T09:47:33.827Z,1021.68
2017-04-03T09:48:33.764Z,1021.71
2017-04-03T09:49:33.701Z,1021.72
2017-04-03T09:50:33.639Z,1021.74
2017-04-03T09:51:33.574Z,1021.66
2017-04-03T09:52:33.512Z,1021.69
2017-04-03T09:53:33.449Z,1021.68
2017-04-03T09:54:33.589Z,1021.7
2017-04-03T09:55:33.323Z,1021.69
2017-04-03T09:56:33.260Z,1021.7
2017-04-03T09:57:33.196Z,1021.76
2017-04-03T09:58:33.134Z,1021.7
2017-04-03T09:59:33.071Z,1021.71
2017-04-03T10:00:33.010Z,1021.71
2017-04-03T10:01:32.946Z,1021.72
2017-04-03T10:02:32.883Z,1021.7
2017-04-03T10:03:32.819Z,1021.73
2017-04-03T10:04:32.758Z,1021.72
2017-04-03T10:05:32.695Z,1021.74
2017-04-03T10:06:32.631Z,1021.72
2017-04-03T10:07:32.569Z,1021.74
2017-04-03T10:08:32.508Z,1021.74
2017-04-03T10:09:32.445Z,1021.77
2017-04-03T10:10:32.386Z,1021.7
2017-04-03T10:11:32.319Z,1021.73
2017-04-03T10:12:32.256Z,1021.71
2017-04-03T10:13:32.192Z,1021.79
2017-04-03T10:14:32.130Z,1021.69
2017-04-03T10:15:32.069Z,1021.69
2017-04-03T10:16:32.006Z,1021.72
2017-04-03T10:17:31.942Z,1021.72
2017-04-03T10:18:31.880Z,1021.71
2017-04-03T10:19:31.817Z,1021.75
2017-04-03T10:20:31.755Z,1021.74
2017-04-03T10:21:31.692Z,1021.8
2017-04-03T10:22:31.629Z,1021.81
2017-04-03T10:23:31.568Z,1021.84
2017-04-03T10:24:31.504Z,1021.84
2017-04-03T10:25:31.443Z,1021.84
2017-04-03T10:26:31.379Z,1021.85
2017-04-03T10:27:31.316Z,1021.9
2017-04-03T10:28:31.253Z,1021.87
2017-04-03T10:29:31.193Z,1021.87
2017-04-03T10:30:31.130Z,1021.86
2017-04-03T10:31:31.068Z,1021.86
2017-04-03T10:32:31.004Z,1021.85
2017-04-03T10:33:30.941Z,1021.87
2017-04-03T10:34:30.879Z,1021.84
2017-04-03T10:35:30.817Z,1021.84
2017-04-03T10:36:30.754Z,1021.84
2017-04-03T10:37:30.692Z,1021.83
2017-04-03T10:38:30.630Z,1021.81
2017-04-03T10:39:30.568Z,1021.83
2017-04-03T10:40:30.505Z,1021.81
2017-04-03T10:41:30.443Z,1021.85
2017-04-03T10:42:30.380Z,1021.87
2017-04-03T10:43:30.317Z,1021.83
2017-04-03T10:44:30.255Z,1021.86
2017-04-03T10:45:30.192Z,1021.87
2017-04-03T10:46:30.129Z,1021.88
2017-04-03T10:47:30.068Z,1021.87
2017-04-03T10:48:30.005Z,1021.85
2017-04-03T10:49:29.946Z,1021.8
2017-04-03T10:50:29.880Z,1021.86
2017-04-03T10:51:29.818Z,1021.87
2017-04-03T10:52:29.756Z,1021.85
2017-04-03T10:53:29.696Z,1021.88
2017-04-03T10:54:29.631Z,1021.88
2017-04-03T10:55:29.568Z,1021.9
2017-04-03T10:56:29.506Z,1021.91
2017-04-03T10:57:29.443Z,1021.91
2017-04-03T10:58:29.381Z,1021.91
2017-04-03T10:59:29.318Z,1021.92
2017-04-03T11:00:29.258Z,1021.96
2017-04-03T11:01:29.193Z,1021.95
2017-04-03T11:02:29.131Z,1021.97
2017-04-03T11:03:29.069Z,1021.97
2017-04-03T11:04:29.006Z,1021.91
2017-04-03T11:05:28.943Z,1021.94
2017-04-03T11:06:28.882Z,1021.97
2017-04-03T11:07:28.818Z,1021.96
2017-04-03T11:08:28.755Z,1021.98
2017-04-03T11:09:28.694Z,1022
2017-04-03T11:10:28.633Z,1021.97
2017-04-03T11:11:28.569Z,1021.96
2017-04-03T11:12:28.505Z,1021.96
2017-04-03T11:13:28.442Z,1021.95
2017-04-03T11:14:28.400Z,1022
2017-04-03T11:15:28.317Z,1021.99
2017-04-03T11:16:28.255Z,1021.96
2017-04-03T11:17:28.192Z,1021.95
2017-04-03T11:18:28.132Z,1021.97
2017-04-03T11:19:28.067Z,1021.95
2017-04-03T11:20:28.004Z,1021.93
2017-04-03T11:21:27.943Z,1021.98
2017-04-03T11:22:27.880Z,1021.98
2017-04-03T11:23:27.817Z,1021.97
2017-04-03T11:24:27.755Z,1021.93
2017-04-03T11:25:27.693Z,1021.97
2017-04-03T11:26:27.630Z,1021.96
2017-04-03T11:27:27.567Z,1021.98
2017-04-03T11:28:27.505Z,1021.94
2017-04-03T11:29:27.443Z,1021.98
2017-04-03T11:30:27.380Z,1021.99
2017-04-03T11:31:27.321Z,1021.95
2017-04-03T11:32:27.256Z,1021.99
2017-04-03T11:33:27.194Z,1021.98
2017-04-03T11:34:27.131Z,1021.97
2017-04-03T11:35:27.070Z,1022.02
2017-04-03T11:36:27.008Z,1021.97
2017-04-03T11:37:26.943Z,1022.03
2017-04-03T11:38:26.919Z,1022
2017-04-03T11:39:26.822Z,1021.96
2017-04-03T11:40:26.757Z,1021.98
2017-04-03T11:41:26.694Z,1021.96
2017-04-03T11:42:26.631Z,1021.97
2017-04-03T11:43:26.569Z,1021.96
2017-04-03T11:44:26.512Z,1021.95
2017-04-03T11:45:26.443Z,1021.98
2017-04-03T11:46:26.383Z,1022.01
2017-04-03T11:47:26.337Z,1022.02
2017-04-03T11:48:26.260Z,1021.97
2017-04-03T11:49:26.193Z,1022.01
2017-04-03T11:50:26.131Z,1021.97
2017-04-03T11:51:26.070Z,1021.96
2017-04-03T11:52:26.006Z,1021.99
2017-04-03T11:53:25.943Z,1021.98
2017-04-03T11:54:25.880Z,1021.96
2017-04-03T11:55:25.819Z,1021.97
2017-04-03T11:56:25.757Z,1021.96
2017-04-03T11:57:25.697Z,1021.97
2017-04-03T11:58:25.631Z,1021.92
2017-04-03T11:59:25.567Z,1021.94
2017-04-03T12:00:25.510Z,1021.95
2017-04-03T12:01:25.453Z,1021.93
2017-04-03T12:02:25.379Z,1021.92
2017-04-03T12:03:25.317Z,1021.89
2017-04-03T12:04:25.253Z,1021.93
2017-04-03T12:05:25.215Z,1021.89
2017-04-03T12:06:25.130Z,1021.93
2017-04-03T12:07:25.064Z,1021.9